createdAt,value
2023-02-03T00:00:58.514Z,0.17
2023-02-03T00:01:58.477Z,0
2023-02-03T00:02:58.544Z,-0.17
2023-02-03T00:03:58.436Z,0
2023-02-03T00:04:58.443Z,0
2023-02-03T00:05:58.444Z,0
2023-02-03T00:06:58.435Z,0
2023-02-03T00:07:58.445Z,-0.17
2023-02-03T00:08:58.445Z,-0.17
2023-02-03T00:09:58.453Z,0
2023-02-03T00:10:58.472Z,-0.17
2023-02-03T00:11:58.446Z,0
2023-02-03T00:12:58.461Z,0
2023-02-03T00:13:58.472Z,-0.39
2023-02-03T00:14:58.462Z,0
2023-02-03T00:15:58.494Z,-0.17
2023-02-03T00:16:58.489Z,0.17
2023-02-03T00:17:58.457Z,0
2023-02-03T00:18:58.466Z,-0.17
2023-02-03T00:19:58.472Z,0.28
2023-02-03T00:20:58.462Z,0
2023-02-03T00:21:58.457Z,0.28
2023-02-03T00:22:58.466Z,0.17
2023-02-03T00:23:58.469Z,0
2023-02-03T00:24:58.465Z,0.28
2023-02-03T00:25:58.464Z,0.17
2023-02-03T00:26:58.475Z,0.17
2023-02-03T00:27:58.490Z,0.17
2023-02-03T00:28:58.470Z,0.44
2023-02-03T00:29:58.474Z,0.17
2023-02-03T00:30:58.471Z,0
2023-02-03T00:31:58.582Z,0.44
2023-02-03T00:32:58.498Z,0.17
2023-02-03T00:33:58.480Z,0
2023-02-03T00:34:58.476Z,-0.28
2023-02-03T00:35:58.491Z,0
2023-02-03T00:36:58.484Z,0
2023-02-03T00:37:58.499Z,0
2023-02-03T00:38:58.485Z,-0.17
2023-02-03T00:39:58.529Z,-0.17
2023-02-03T00:40:58.485Z,0
2023-02-03T00:41:58.484Z,-0.17
2023-02-03T00:42:58.482Z,0.28
2023-02-03T00:43:58.494Z,0
2023-02-03T00:44:58.488Z,0
2023-02-03T00:45:58.580Z,0
2023-02-03T00:46:58.495Z,0
2023-02-03T00:47:58.510Z,-0.17
2023-02-03T00:48:58.516Z,-0.17
2023-02-03T00:49:58.502Z,-0.17
2023-02-03T00:50:58.501Z,0
2023-02-03T00:51:58.490Z,0
2023-02-03T00:52:58.503Z,0
2023-02-03T00:53:58.508Z,0
2023-02-03T00:54:58.500Z,0
2023-02-03T00:55:58.510Z,-0.17
2023-02-03T00:56:58.497Z,-0.17
2023-02-03T00:57:58.512Z,-0.17
2023-02-03T00:58:58.508Z,0
2023-02-03T00:59:58.506Z,-0.39
2023-02-03T01:00:58.563Z,0
2023-02-03T01:01:58.538Z,-0.17
2023-02-03T01:02:58.506Z,0
2023-02-03T01:03:58.509Z,0
2023-02-03T01:04:58.528Z,-0.39
2023-02-03T01:05:58.508Z,-0.28
2023-02-03T01:06:58.506Z,-0.17
2023-02-03T01:07:58.516Z,-0.28
2023-02-03T01:08:58.509Z,-0.17
2023-02-03T01:09:58.522Z,0
2023-02-03T01:10:58.525Z,-0.28
2023-02-03T01:11:58.508Z,-0.17
2023-02-03T01:12:58.505Z,-0.17
2023-02-03T01:13:58.517Z,-0.39
2023-02-03T01:14:58.515Z,-0.28
2023-02-03T01:15:58.528Z,-0.28
2023-02-03T01:16:58.609Z,-0.28
2023-02-03T01:17:58.518Z,-0.28
2023-02-03T01:18:58.514Z,-0.39
2023-02-03T01:19:58.519Z,-0.56
2023-02-03T01:20:58.540Z,-0.28
2023-02-03T01:21:58.514Z,-0.28
2023-02-03T01:22:58.527Z,-0.28
2023-02-03T01:23:58.521Z,-0.17
2023-02-03T01:24:58.523Z,0
2023-02-03T01:25:58.516Z,-0.39
2023-02-03T01:26:58.527Z,-0.39
2023-02-03T01:27:58.593Z,-0.28
2023-02-03T01:28:58.522Z,-0.17
2023-02-03T01:29:58.523Z,-0.17
2023-02-03T01:30:58.645Z,-0.56
2023-02-03T01:31:58.660Z,0
2023-02-03T01:32:58.526Z,-0.28
2023-02-03T01:33:58.522Z,-0.28
2023-02-03T01:34:58.527Z,-0.28
2023-02-03T01:35:58.523Z,-0.28
2023-02-03T01:36:58.544Z,-0.28
2023-02-03T01:37:58.537Z,0
2023-02-03T01:38:58.521Z,-0.28
2023-02-03T01:39:58.526Z,-0.17
2023-02-03T01:40:58.524Z,-0.28
2023-02-03T01:41:58.530Z,-0.17
2023-02-03T01:42:58.522Z,0
2023-02-03T01:43:58.542Z,-0.17
2023-02-03T01:44:58.552Z,0
2023-02-03T01:45:58.587Z,-0.28
2023-02-03T01:46:58.532Z,-0.28
2023-02-03T01:47:58.526Z,0
2023-02-03T01:48:58.533Z,-0.17
2023-02-03T01:49:58.520Z,0.17
2023-02-03T01:50:58.536Z,-0.17
2023-02-03T01:51:58.534Z,0
2023-02-03T01:52:58.567Z,-0.39
2023-02-03T01:53:58.556Z,-0.17
2023-02-03T01:54:58.562Z,-0.17
2023-02-03T01:55:58.539Z,-0.39
2023-02-03T01:56:58.533Z,-0.28
2023-02-03T01:57:58.549Z,-0.28
2023-02-03T01:58:58.544Z,-0.28
2023-02-03T01:59:58.570Z,-0.39
2023-02-03T02:00:58.642Z,-0.67
2023-02-03T02:01:58.557Z,-0.17
2023-02-03T02:02:58.555Z,-0.28
2023-02-03T02:03:58.557Z,0
2023-02-03T02:04:58.551Z,-0.17
2023-02-03T02:05:58.557Z,0
2023-02-03T02:06:58.585Z,0
2023-02-03T02:07:58.561Z,0
2023-02-03T02:08:58.583Z,0
2023-02-03T02:09:58.559Z,0
2023-02-03T02:10:58.567Z,-0.39
2023-02-03T02:11:58.565Z,0
2023-02-03T02:12:58.572Z,-0.39
2023-02-03T02:13:58.570Z,-0.28
2023-02-03T02:14:58.590Z,0
2023-02-03T02:15:58.645Z,-0.17
2023-02-03T02:16:58.592Z,-0.39
2023-02-03T02:17:58.586Z,-0.39
2023-02-03T02:18:58.577Z,-0.17
2023-02-03T02:19:58.595Z,0
2023-02-03T02:20:58.592Z,-0.39
2023-02-03T02:21:58.587Z,-0.39
2023-02-03T02:22:58.598Z,-0.28
2023-02-03T02:23:58.597Z,-0.17
2023-02-03T02:24:58.617Z,-0.28
2023-02-03T02:25:58.609Z,-0.39
2023-02-03T02:26:58.605Z,0
2023-02-03T02:27:58.668Z,0
2023-02-03T02:28:58.608Z,0
2023-02-03T02:29:58.617Z,0
2023-02-03T02:30:58.726Z,0.17
2023-02-03T02:31:58.688Z,0
2023-02-03T02:32:58.611Z,0
2023-02-03T02:33:58.616Z,-0.28
2023-02-03T02:34:58.628Z,0
2023-02-03T02:35:58.609Z,-0.17
2023-02-03T02:36:58.624Z,-0.17
2023-02-03T02:37:58.637Z,-0.17
2023-02-03T02:38:58.658Z,-0.17
2023-02-03T02:39:58.645Z,-0.28
2023-02-03T02:40:58.653Z,-0.17
2023-02-03T02:41:58.629Z,0
2023-02-03T02:42:58.638Z,-0.17
2023-02-03T02:43:58.639Z,0
2023-02-03T02:44:58.640Z,-0.17
2023-02-03T02:45:58.701Z,-0.17
2023-02-03T02:46:58.640Z,-0.17
2023-02-03T02:47:58.651Z,-0.17
2023-02-03T02:48:58.655Z,-0.39
2023-02-03T02:49:58.644Z,-0.39
2023-02-03T02:50:58.660Z,-0.28
2023-02-03T02:51:58.657Z,-0.28
2023-02-03T02:52:58.648Z,-0.28
2023-02-03T02:53:58.652Z,0
2023-02-03T02:54:58.652Z,0
2023-02-03T02:55:58.658Z,0
2023-02-03T02:56:58.696Z,-0.39
2023-02-03T02:57:58.657Z,0
2023-02-03T02:58:58.662Z,0
2023-02-03T02:59:58.675Z,0
2023-02-03T03:00:58.673Z,-0.17
2023-02-03T03:01:58.753Z,-0.28
2023-02-03T03:02:58.670Z,-0.17
2023-02-03T03:03:58.671Z,-0.17
2023-02-03T03:04:58.729Z,-0.39
2023-02-03T03:05:58.676Z,-0.28
2023-02-03T03:06:58.676Z,-0.28
2023-02-03T03:07:58.685Z,0
2023-02-03T03:08:58.694Z,0
2023-02-03T03:09:58.687Z,-0.17
2023-02-03T03:10:58.709Z,-0.56
2023-02-03T03:11:58.692Z,0
2023-02-03T03:12:58.723Z,-0.17
2023-02-03T03:13:58.683Z,0
2023-02-03T03:14:58.708Z,-0.17
2023-02-03T03:15:58.746Z,-0.28
2023-02-03T03:16:58.693Z,-0.28
2023-02-03T03:17:58.710Z,0
2023-02-03T03:18:58.722Z,-0.28
2023-02-03T03:19:58.705Z,0
2023-02-03T03:20:58.717Z,-0.28
2023-02-03T03:21:58.708Z,0
2023-02-03T03:22:58.709Z,-0.39
2023-02-03T03:23:58.717Z,-0.28
2023-02-03T03:24:58.714Z,-0.28
2023-02-03T03:25:58.720Z,-0.39
2023-02-03T03:26:58.739Z,0
2023-02-03T03:27:58.777Z,0
2023-02-03T03:28:58.761Z,0
2023-02-03T03:29:58.719Z,0.28
2023-02-03T03:30:58.799Z,0.17
2023-02-03T03:31:58.802Z,0
2023-02-03T03:32:58.733Z,0
2023-02-03T03:33:58.733Z,-0.17
2023-02-03T03:34:58.737Z,-0.17
2023-02-03T03:35:58.741Z,-0.17
2023-02-03T03:36:58.743Z,-0.17
2023-02-03T03:37:58.740Z,0
2023-02-03T03:38:58.770Z,-0.39
2023-02-03T03:39:58.759Z,-0.17
2023-02-03T03:40:58.761Z,-0.17
2023-02-03T03:41:58.757Z,-0.39
2023-02-03T03:42:58.760Z,-0.17
2023-02-03T03:43:58.750Z,-0.17
2023-02-03T03:44:58.774Z,0
2023-02-03T03:45:58.760Z,-0.17
2023-02-03T03:46:58.755Z,-0.17
2023-02-03T03:47:58.768Z,0
2023-02-03T03:48:58.773Z,0.17
2023-02-03T03:49:58.758Z,0.17
2023-02-03T03:50:58.763Z,0.44
2023-02-03T03:51:58.778Z,0.44
2023-02-03T03:52:58.767Z,0.17
2023-02-03T03:53:58.813Z,0
2023-02-03T03:54:58.764Z,0.44
2023-02-03T03:55:58.769Z,0.28
2023-02-03T03:56:58.763Z,0
2023-02-03T03:57:58.770Z,0.17
2023-02-03T03:58:58.765Z,0
2023-02-03T03:59:58.768Z,0.28
2023-02-03T04:00:58.806Z,0.17
2023-02-03T04:01:58.891Z,0
2023-02-03T04:02:58.820Z,0
2023-02-03T04:03:58.782Z,-0.17
2023-02-03T04:04:58.779Z,0.17
2023-02-03T04:05:58.778Z,0
2023-02-03T04:06:58.786Z,0
2023-02-03T04:07:58.791Z,0.17
2023-02-03T04:08:58.790Z,-0.17
2023-02-03T04:09:58.795Z,0
2023-02-03T04:10:58.868Z,0
2023-02-03T04:11:58.809Z,0
2023-02-03T04:12:58.810Z,-0.17
2023-02-03T04:13:58.796Z,0.17
2023-02-03T04:14:58.793Z,0.17
2023-02-03T04:15:58.854Z,0.61
2023-02-03T04:16:58.836Z,0.17
2023-02-03T04:17:58.810Z,0.28
2023-02-03T04:18:58.795Z,0.17
2023-02-03T04:19:58.805Z,0.17
2023-02-03T04:20:58.801Z,0
2023-02-03T04:21:58.795Z,-0.17
2023-02-03T04:22:58.807Z,0.17
2023-02-03T04:23:58.811Z,0.17
2023-02-03T04:24:58.838Z,0.17
2023-02-03T04:25:58.815Z,0
2023-02-03T04:26:58.822Z,-0.17
2023-02-03T04:27:58.823Z,-0.17
2023-02-03T04:28:58.832Z,0
2023-02-03T04:29:58.818Z,0
2023-02-03T04:30:58.841Z,0
2023-02-03T04:31:58.897Z,0
2023-02-03T04:32:58.842Z,0
2023-02-03T04:33:58.819Z,-0.17
2023-02-03T04:34:58.836Z,0
2023-02-03T04:35:58.829Z,-0.17
2023-02-03T04:36:58.834Z,0.28
2023-02-03T04:37:58.838Z,-0.17
2023-02-03T04:38:58.836Z,0.17
2023-02-03T04:39:58.830Z,0.17
2023-02-03T04:40:58.831Z,0.44
2023-02-03T04:41:58.844Z,0.44
2023-02-03T04:42:58.840Z,0.28
2023-02-03T04:43:58.837Z,-0.17
2023-02-03T04:44:58.844Z,-0.17
2023-02-03T04:45:58.946Z,0.28
2023-02-03T04:46:58.837Z,-0.17
2023-02-03T04:47:58.841Z,0.17
2023-02-03T04:48:58.880Z,0.17
2023-02-03T04:49:58.847Z,0.44
2023-02-03T04:50:58.833Z,0.44
2023-02-03T04:51:58.849Z,0
2023-02-03T04:52:58.864Z,0.28
2023-02-03T04:53:58.855Z,0.61
2023-02-03T04:54:58.886Z,0.89
2023-02-03T04:55:58.853Z,0.72
2023-02-03T04:56:58.856Z,0.44
2023-02-03T04:57:58.858Z,0.61
2023-02-03T04:58:58.861Z,0.72
2023-02-03T04:59:58.860Z,0.17
2023-02-03T05:00:58.933Z,0.28
2023-02-03T05:01:58.872Z,0
2023-02-03T05:02:58.906Z,0
2023-02-03T05:03:58.855Z,0.17
2023-02-03T05:04:58.899Z,0.28
2023-02-03T05:05:58.866Z,0.17
2023-02-03T05:06:58.868Z,0
2023-02-03T05:07:58.867Z,0.17
2023-02-03T05:08:58.861Z,0.17
2023-02-03T05:09:58.871Z,0.17
2023-02-03T05:11:01.357Z,0.17
2023-02-03T05:11:58.868Z,0.28
2023-02-03T05:12:58.901Z,0.17
2023-02-03T05:13:58.875Z,0.17
2023-02-03T05:14:58.872Z,0.44
2023-02-03T05:15:58.870Z,0.44
2023-02-03T05:16:58.873Z,0.17
2023-02-03T05:17:58.885Z,0.17
2023-02-03T05:18:58.878Z,0.44
2023-02-03T05:19:58.889Z,0.61
2023-02-03T05:20:58.909Z,0.89
2023-02-03T05:21:58.885Z,0.44
2023-02-03T05:22:58.896Z,0.44
2023-02-03T05:23:58.884Z,0.44
2023-02-03T05:24:58.883Z,0.44
2023-02-03T05:25:58.904Z,0.44
2023-02-03T05:26:58.928Z,0.28
2023-02-03T05:27:58.929Z,0.44
2023-02-03T05:28:58.889Z,0.28
2023-02-03T05:29:58.885Z,0.44
2023-02-03T05:30:58.933Z,0.44
2023-02-03T05:31:58.952Z,0.28
2023-02-03T05:32:58.881Z,0.44
2023-02-03T05:33:58.894Z,0.44
2023-02-03T05:34:58.885Z,0.44
2023-02-03T05:35:58.899Z,0.44
2023-02-03T05:36:58.915Z,0.61
2023-02-03T05:37:58.895Z,0.44
2023-02-03T05:38:58.900Z,0.61
2023-02-03T05:39:58.898Z,0.44
2023-02-03T05:40:58.918Z,0.61
2023-02-03T05:41:58.913Z,0.44
2023-02-03T05:42:58.897Z,0.28
2023-02-03T05:43:58.907Z,0.17
2023-02-03T05:44:58.912Z,0.17
2023-02-03T05:45:58.947Z,0.28
2023-02-03T05:46:58.926Z,0.44
2023-02-03T05:47:58.897Z,0.28
2023-02-03T05:48:58.905Z,0.72
2023-02-03T05:49:58.902Z,0.72
2023-02-03T05:50:58.921Z,0.72
2023-02-03T05:51:58.907Z,0.44
2023-02-03T05:52:58.925Z,0.44
2023-02-03T05:53:58.907Z,0.44
2023-02-03T05:54:58.908Z,0.72
2023-02-03T05:55:58.909Z,1.61
2023-02-03T05:56:58.910Z,1.89
2023-02-03T05:57:58.917Z,2
2023-02-03T05:58:58.918Z,1.61
2023-02-03T05:59:58.914Z,1.61
2023-02-03T06:00:58.919Z,1.33
2023-02-03T06:01:58.914Z,1.72
2023-02-03T06:02:58.991Z,1.72
2023-02-03T06:03:59.105Z,2.17
2023-02-03T06:04:58.924Z,2
2023-02-03T06:05:58.950Z,1.61
2023-02-03T06:06:58.917Z,1.72
2023-02-03T06:07:58.933Z,1.72
2023-02-03T06:08:58.940Z,1.72
2023-02-03T06:09:58.917Z,1.89
2023-02-03T06:10:58.933Z,1.5
2023-02-03T06:11:58.917Z,1.61
2023-02-03T06:12:58.918Z,1.33
2023-02-03T06:13:58.923Z,1.5
2023-02-03T06:14:58.933Z,1.72
2023-02-03T06:15:58.922Z,1.61
2023-02-03T06:16:58.969Z,1.17
2023-02-03T06:17:58.928Z,1.17
2023-02-03T06:18:58.929Z,0.89
2023-02-03T06:19:58.922Z,1.72
2023-02-03T06:20:58.917Z,1.5
2023-02-03T06:21:58.922Z,2
2023-02-03T06:22:58.926Z,1.89
2023-02-03T06:23:59.013Z,2.17
2023-02-03T06:24:58.960Z,2.17
2023-02-03T06:25:58.939Z,1.72
2023-02-03T06:26:58.936Z,1.72
2023-02-03T06:27:58.968Z,1.72
2023-02-03T06:28:58.931Z,1.61
2023-02-03T06:29:58.929Z,1.89
2023-02-03T06:30:59.042Z,2
2023-02-03T06:31:59.061Z,2
2023-02-03T06:32:58.939Z,1.72
2023-02-03T06:33:58.934Z,1.72
2023-02-03T06:34:58.931Z,1.72
2023-02-03T06:35:58.942Z,1.61
2023-02-03T06:36:58.937Z,1.72
2023-02-03T06:37:58.948Z,1.5
2023-02-03T06:38:58.933Z,1.61
2023-02-03T06:39:58.934Z,1.89
2023-02-03T06:40:58.955Z,1.61
2023-02-03T06:41:58.939Z,1.17
2023-02-03T06:42:58.946Z,0.72
2023-02-03T06:43:58.966Z,1.17
2023-02-03T06:44:58.945Z,1.17
2023-02-03T06:45:58.997Z,0.89
2023-02-03T06:46:58.949Z,1.17
2023-02-03T06:47:58.936Z,1.17
2023-02-03T06:48:58.951Z,1.06
2023-02-03T06:49:58.949Z,1.06
2023-02-03T06:50:58.947Z,1.17
2023-02-03T06:51:58.963Z,1.33
2023-02-03T06:52:58.961Z,1.17
2023-02-03T06:53:58.965Z,1.33
2023-02-03T06:54:58.957Z,1.06
2023-02-03T06:55:58.962Z,1.33
2023-02-03T06:56:58.996Z,1.33
2023-02-03T06:57:58.960Z,1.61
2023-02-03T06:58:58.976Z,1.33
2023-02-03T06:59:58.978Z,1.06
2023-02-03T07:00:58.975Z,1.17
2023-02-03T07:01:58.970Z,0.72
2023-02-03T07:02:59.120Z,0.89
2023-02-03T07:03:58.980Z,0.89
2023-02-03T07:04:58.977Z,0.89
2023-02-03T07:05:58.976Z,1.17
2023-02-03T07:06:58.980Z,1.33
2023-02-03T07:07:58.987Z,1.33
2023-02-03T07:09:00.749Z,1.5
2023-02-03T07:09:58.987Z,1.33
2023-02-03T07:10:58.994Z,1.33
2023-02-03T07:11:59.003Z,0.89
2023-02-03T07:12:59.017Z,0.72
2023-02-03T07:13:58.989Z,0.89
2023-02-03T07:14:59.006Z,0.89
2023-02-03T07:15:59.056Z,1.33
2023-02-03T07:16:59.011Z,1.33
2023-02-03T07:17:59.000Z,1.72
2023-02-03T07:18:59.001Z,1.5
2023-02-03T07:19:59.007Z,1.5
2023-02-03T07:20:59.003Z,0.89
2023-02-03T07:21:59.002Z,0.89
2023-02-03T07:22:59.051Z,0.89
2023-02-03T07:23:59.016Z,0.72
2023-02-03T07:24:59.014Z,0.72
2023-02-03T07:25:59.033Z,0.89
2023-02-03T07:26:59.033Z,1.06
2023-02-03T07:27:59.077Z,0.89
2023-02-03T07:28:59.045Z,0.89
2023-02-03T07:29:59.032Z,1.06
2023-02-03T07:30:59.102Z,0.89
2023-02-03T07:31:59.155Z,1.06
2023-02-03T07:32:59.031Z,0.89
2023-02-03T07:33:59.034Z,0.89
2023-02-03T07:34:59.036Z,0.89
2023-02-03T07:35:59.039Z,1.06
2023-02-03T07:36:59.041Z,0.72
2023-02-03T07:37:59.041Z,1.17
2023-02-03T07:38:59.054Z,1.06
2023-02-03T07:39:59.049Z,1.17
2023-02-03T07:40:59.056Z,0.89
2023-02-03T07:41:59.067Z,1.06
2023-02-03T07:42:59.051Z,1.06
2023-02-03T07:43:59.057Z,1.06
2023-02-03T07:44:59.078Z,1.06
2023-02-03T07:45:59.059Z,1.06
2023-02-03T07:46:59.053Z,0.72
2023-02-03T07:47:59.052Z,1.17
2023-02-03T07:48:59.067Z,1.33
2023-02-03T07:49:59.087Z,1.5
2023-02-03T07:50:59.067Z,1.5
2023-02-03T07:51:59.057Z,1.33
2023-02-03T07:52:59.072Z,1.61
2023-02-03T07:53:59.059Z,1.33
2023-02-03T07:54:59.066Z,1.17
2023-02-03T07:55:59.065Z,1.17
2023-02-03T07:56:59.072Z,1.33
2023-02-03T07:58:00.174Z,1.5
2023-02-03T07:58:59.077Z,1.33
2023-02-03T07:59:59.062Z,1.33
2023-02-03T08:00:59.094Z,1.5
2023-02-03T08:01:59.177Z,1.5
2023-02-03T08:02:59.079Z,1.5
2023-02-03T08:03:59.073Z,1.17
2023-02-03T08:04:59.138Z,1.33
2023-02-03T08:05:59.091Z,1.33
2023-02-03T08:06:59.096Z,1.33
2023-02-03T08:07:59.087Z,1.33
2023-02-03T08:08:59.074Z,1.61
2023-02-03T08:09:59.091Z,2.28
2023-02-03T08:10:59.101Z,3
2023-02-03T08:11:59.097Z,2.89
2023-02-03T08:12:59.093Z,2.89
2023-02-03T08:13:59.091Z,2.89
2023-02-03T08:14:59.094Z,2.28
2023-02-03T08:15:59.161Z,2.28
2023-02-03T08:16:59.128Z,1.89
2023-02-03T08:17:59.112Z,1.72
2023-02-03T08:18:59.105Z,1.72
2023-02-03T08:19:59.100Z,1.72
2023-02-03T08:20:59.109Z,1.61
2023-02-03T08:21:59.119Z,1.89
2023-02-03T08:22:59.115Z,1.72
2023-02-03T08:23:59.118Z,2
2023-02-03T08:24:59.109Z,1.72
2023-02-03T08:25:59.138Z,2.28
2023-02-03T08:26:59.110Z,2.17
2023-02-03T08:27:59.184Z,2.28
2023-02-03T08:28:59.118Z,2.17
2023-02-03T08:29:59.138Z,2.17
2023-02-03T08:30:59.182Z,2.17
2023-02-03T08:31:59.153Z,2.17
2023-02-03T08:32:59.145Z,2.17
2023-02-03T08:33:59.155Z,2
2023-02-03T08:34:59.139Z,1.72
2023-02-03T08:35:59.125Z,2
2023-02-03T08:36:59.134Z,2
2023-02-03T08:37:59.150Z,2.17
2023-02-03T08:38:59.138Z,2
2023-02-03T08:39:59.134Z,2.72
2023-02-03T08:40:59.132Z,3.56
2023-02-03T08:41:59.140Z,2.61
2023-02-03T08:42:59.133Z,2.89
2023-02-03T08:43:59.142Z,2.72
2023-02-03T08:44:59.137Z,3.17
2023-02-03T08:45:59.182Z,3.33
2023-02-03T08:46:59.191Z,3
2023-02-03T08:47:59.169Z,2.44
2023-02-03T08:48:59.197Z,1.89
2023-02-03T08:49:59.158Z,2
2023-02-03T08:50:59.176Z,2.17
2023-02-03T08:51:59.156Z,2.17
2023-02-03T08:52:59.168Z,2.61
2023-02-03T08:53:59.170Z,3
2023-02-03T08:54:59.168Z,2.72
2023-02-03T08:55:59.161Z,2.61
2023-02-03T08:56:59.160Z,2.61
2023-02-03T08:57:59.174Z,2.44
2023-02-03T08:58:59.177Z,2.28
2023-02-03T08:59:59.169Z,2.44
2023-02-03T09:00:59.202Z,3.17
2023-02-03T09:01:59.178Z,3.17
2023-02-03T09:02:59.182Z,3.33
2023-02-03T09:03:59.182Z,3.56
2023-02-03T09:04:59.295Z,4.17
2023-02-03T09:05:59.205Z,4.28
2023-02-03T09:06:59.183Z,4.72
2023-02-03T09:07:59.186Z,3.83
2023-02-03T09:08:59.182Z,3.72
2023-02-03T09:09:59.198Z,3.72
2023-02-03T09:10:59.185Z,3.83
2023-02-03T09:11:59.197Z,3.83
2023-02-03T09:12:59.197Z,3.17
2023-02-03T09:13:59.215Z,3.44
2023-02-03T09:14:59.206Z,3.33
2023-02-03T09:15:59.199Z,3.33
2023-02-03T09:16:59.311Z,3.17
2023-02-03T09:17:59.216Z,3.33
2023-02-03T09:18:59.215Z,3.44
2023-02-03T09:19:59.264Z,3.44
2023-02-03T09:20:59.234Z,3
2023-02-03T09:21:59.214Z,2.89
2023-02-03T09:22:59.218Z,2.89
2023-02-03T09:23:59.206Z,3.33
2023-02-03T09:24:59.222Z,3.33
2023-02-03T09:25:59.217Z,3.44
2023-02-03T09:26:59.226Z,3
2023-02-03T09:27:59.244Z,3.44
2023-02-03T09:28:59.222Z,3.44
2023-02-03T09:29:59.234Z,3.33
2023-02-03T09:30:59.255Z,3.56
2023-02-03T09:31:59.261Z,3.44
2023-02-03T09:32:59.237Z,3.72
2023-02-03T09:33:59.230Z,3.72
2023-02-03T09:34:59.235Z,3.56
2023-02-03T09:35:59.243Z,3.83
2023-02-03T09:36:59.379Z,3.72
2023-02-03T09:37:59.237Z,3.44
2023-02-03T09:38:59.272Z,3.83
2023-02-03T09:39:59.291Z,4
2023-02-03T09:41:09.469Z,4
2023-02-03T09:42:01.054Z,4.28
2023-02-03T09:42:59.269Z,3.83
2023-02-03T09:43:59.269Z,4
2023-02-03T09:44:59.254Z,3.83
2023-02-03T09:45:59.268Z,3.83
2023-02-03T09:46:59.249Z,4
2023-02-03T09:47:59.258Z,4.17
2023-02-03T09:48:59.245Z,4.56
2023-02-03T09:49:59.266Z,5
2023-02-03T09:50:59.255Z,4.89
2023-02-03T09:51:59.253Z,4.72
2023-02-03T09:52:59.276Z,4.72
2023-02-03T09:53:59.255Z,4.72
2023-02-03T09:54:59.273Z,4.17
2023-02-03T09:55:59.251Z,4.44
2023-02-03T09:56:59.263Z,4.28
2023-02-03T09:57:59.283Z,4.17
2023-02-03T09:58:59.268Z,4.17
2023-02-03T09:59:59.282Z,4.72
2023-02-03T10:00:59.288Z,5
2023-02-03T10:01:59.263Z,5.17
2023-02-03T10:02:59.323Z,4.28
2023-02-03T10:03:59.276Z,4.28
2023-02-03T10:04:59.263Z,4.28
2023-02-03T10:05:59.292Z,4.28
2023-02-03T10:06:59.268Z,4.72
2023-02-03T10:07:59.282Z,4.72
2023-02-03T10:08:59.299Z,4.72
2023-02-03T10:09:59.287Z,4.89
2023-02-03T10:10:59.278Z,3.44
2023-02-03T10:11:59.281Z,3.33
2023-02-03T10:12:59.283Z,3.17
2023-02-03T10:13:59.297Z,3.83
2023-02-03T10:14:59.284Z,3.56
2023-02-03T10:15:59.282Z,4.44
2023-02-03T10:16:59.338Z,4.28
2023-02-03T10:17:59.288Z,4.89
2023-02-03T10:18:59.284Z,4.17
2023-02-03T10:19:59.276Z,3.83
2023-02-03T10:20:59.279Z,3.83
2023-02-03T10:21:59.281Z,4.28
2023-02-03T10:22:59.292Z,4.17
2023-02-03T10:23:59.286Z,3.83
2023-02-03T10:24:59.326Z,4.17
2023-02-03T10:25:59.288Z,4
2023-02-03T10:26:59.290Z,4.56
2023-02-03T10:27:59.367Z,4.72
2023-02-03T10:28:59.288Z,4.89
2023-02-03T10:29:59.295Z,4.28
2023-02-03T10:30:59.409Z,4.72
2023-02-03T10:31:59.355Z,4.44
2023-02-03T10:32:59.293Z,4.56
2023-02-03T10:33:59.290Z,5.17
2023-02-03T10:34:59.304Z,5.17
2023-02-03T10:35:59.289Z,5.33
2023-02-03T10:36:59.292Z,5.17
2023-02-03T10:37:59.326Z,4.89
2023-02-03T10:38:59.301Z,5.17
2023-02-03T10:39:59.303Z,5
2023-02-03T10:40:59.457Z,4.89
2023-02-03T10:41:59.286Z,5.17
2023-02-03T10:42:59.309Z,5.61
2023-02-03T10:43:59.302Z,5.44
2023-02-03T10:44:59.295Z,5.61
2023-02-03T10:45:59.348Z,4.89
2023-02-03T10:46:59.306Z,5
2023-02-03T10:47:59.311Z,5.17
2023-02-03T10:48:59.300Z,5
2023-02-03T10:49:59.314Z,4.89
2023-02-03T10:50:59.313Z,4.44
2023-02-03T10:51:59.301Z,4.17
2023-02-03T10:52:59.316Z,4
2023-02-03T10:53:59.305Z,4.17
2023-02-03T10:54:59.386Z,3.83
2023-02-03T10:55:59.302Z,4.56
2023-02-03T10:56:59.321Z,4.44
2023-02-03T10:57:59.316Z,4.44
2023-02-03T10:58:59.298Z,4.72
2023-02-03T10:59:59.304Z,5.17
2023-02-03T11:00:59.331Z,5.33
2023-02-03T11:01:59.351Z,5.44
2023-02-03T11:02:59.348Z,5
2023-02-03T11:03:59.302Z,5
2023-02-03T11:04:59.317Z,5.17
2023-02-03T11:05:59.321Z,5.17
2023-02-03T11:06:59.318Z,5.17
2023-02-03T11:07:59.319Z,4.89
2023-02-03T11:08:59.313Z,5.33
2023-02-03T11:09:59.320Z,5
2023-02-03T11:10:59.311Z,5.44
2023-02-03T11:11:59.314Z,5.44
2023-02-03T11:12:59.332Z,5.61
2023-02-03T11:13:59.317Z,5.17
2023-02-03T11:14:59.319Z,5.17
2023-02-03T11:15:59.422Z,5
2023-02-03T11:16:59.368Z,5.17
2023-02-03T11:17:59.314Z,4.89
2023-02-03T11:18:59.323Z,5
2023-02-03T11:19:59.321Z,5.17
2023-02-03T11:20:59.331Z,5
2023-02-03T11:21:59.325Z,4.89
2023-02-03T11:22:59.333Z,4.72
2023-02-03T11:23:59.317Z,4.44
2023-02-03T11:24:59.314Z,4.28
2023-02-03T11:25:59.333Z,4.17
2023-02-03T11:26:59.334Z,4.44
2023-02-03T11:27:59.347Z,4.44
2023-02-03T11:28:59.340Z,4.28
2023-02-03T11:29:59.332Z,4.72
2023-02-03T11:30:59.417Z,4.89
2023-02-03T11:31:59.403Z,4.89
2023-02-03T11:32:59.332Z,4.89
2023-02-03T11:33:59.328Z,4.89
2023-02-03T11:34:59.332Z,4.28
2023-02-03T11:35:59.328Z,4.17
2023-02-03T11:36:59.337Z,4
2023-02-03T11:37:59.331Z,4.44
2023-02-03T11:38:59.331Z,4.28
2023-02-03T11:39:59.334Z,4
2023-02-03T11:40:59.322Z,4.17
2023-02-03T11:41:59.327Z,4.44
2023-02-03T11:42:59.333Z,4.17
2023-02-03T11:43:59.338Z,5
2023-02-03T11:44:59.358Z,5
2023-02-03T11:45:59.344Z,5.17
2023-02-03T11:46:59.333Z,5.17
2023-02-03T11:47:59.356Z,5.17
2023-02-03T11:48:59.340Z,4.72
2023-02-03T11:49:59.346Z,5
2023-02-03T11:50:59.345Z,4.72
2023-02-03T11:51:59.348Z,4.89
2023-02-03T11:52:59.359Z,4.89
2023-02-03T11:53:59.352Z,5.17
2023-02-03T11:54:59.352Z,5
2023-02-03T11:55:59.345Z,4.72
2023-02-03T11:56:59.353Z,5.17
2023-02-03T11:57:59.372Z,5.33
2023-02-03T11:58:59.361Z,5.61
2023-02-03T11:59:59.365Z,5.61
2023-02-03T12:00:59.405Z,5.44
2023-02-03T12:01:59.364Z,5.33
2023-02-03T12:02:59.403Z,5.44
2023-02-03T12:03:59.388Z,5.17
2023-02-03T12:05:00.999Z,5.44
2023-02-03T12:05:59.366Z,5.17
2023-02-03T12:06:59.393Z,5.17
2023-02-03T12:07:59.373Z,5.61
2023-02-03T12:08:59.366Z,5.61
2023-02-03T12:09:59.360Z,5
2023-02-03T12:10:59.367Z,4.89
2023-02-03T12:11:59.370Z,4.72
2023-02-03T12:12:59.371Z,4.72
2023-02-03T12:13:59.367Z,4.56
2023-02-03T12:14:59.383Z,4.89
2023-02-03T12:15:59.441Z,5
2023-02-03T12:16:59.409Z,4.56
2023-02-03T12:17:59.383Z,5.33
2023-02-03T12:18:59.385Z,4.89
2023-02-03T12:19:59.388Z,5.61
2023-02-03T12:20:59.401Z,5.44
2023-02-03T12:21:59.381Z,5.17
2023-02-03T12:22:59.385Z,5
2023-02-03T12:23:59.389Z,4.56
2023-02-03T12:24:59.404Z,4.56
2023-02-03T12:25:59.385Z,4.72
2023-02-03T12:26:59.472Z,4.56
2023-02-03T12:27:59.441Z,4.72
2023-02-03T12:28:59.397Z,4.72
2023-02-03T12:29:59.425Z,5
2023-02-03T12:30:59.460Z,5.17
2023-02-03T12:31:59.541Z,5.17
2023-02-03T12:32:59.513Z,5
2023-02-03T12:33:59.393Z,4.72
2023-02-03T12:34:59.405Z,4.72
2023-02-03T12:35:59.423Z,4.56
2023-02-03T12:36:59.463Z,4.56
2023-02-03T12:37:59.426Z,4.28
2023-02-03T12:38:59.429Z,3.72
2023-02-03T12:39:59.423Z,4
2023-02-03T12:40:59.427Z,3.94
2023-02-03T12:41:59.427Z,4.28
2023-02-03T12:42:59.430Z,4.28
2023-02-03T12:43:59.435Z,3.83
2023-02-03T12:44:59.426Z,4.17
2023-02-03T12:45:59.523Z,4.17
2023-02-03T12:46:59.453Z,3.83
2023-02-03T12:47:59.430Z,4.28
2023-02-03T12:48:59.464Z,4.06
2023-02-03T12:49:59.440Z,3.83
2023-02-03T12:50:59.431Z,3.72
2023-02-03T12:51:59.453Z,4
2023-02-03T12:52:59.449Z,4.06
2023-02-03T12:53:59.435Z,4
2023-02-03T12:54:59.443Z,4.06
2023-02-03T12:55:59.434Z,3.83
2023-02-03T12:56:59.566Z,3.72
2023-02-03T12:57:59.442Z,3.56
2023-02-03T12:58:59.444Z,3.72
2023-02-03T12:59:59.443Z,4.17
2023-02-03T13:00:59.491Z,3.72
2023-02-03T13:01:59.480Z,4.22
2023-02-03T13:02:59.454Z,4.17
2023-02-03T13:03:59.470Z,4
2023-02-03T13:04:59.472Z,4.17
2023-02-03T13:05:59.458Z,4.17
2023-02-03T13:06:59.447Z,3.61
2023-02-03T13:07:59.443Z,3.5
2023-02-03T13:08:59.470Z,4
2023-02-03T13:09:59.440Z,3.83
2023-02-03T13:10:59.463Z,3.83
2023-02-03T13:11:59.444Z,3.56
2023-02-03T13:12:59.463Z,3.83
2023-02-03T13:13:59.478Z,4
2023-02-03T13:14:59.450Z,3.94
2023-02-03T13:15:59.461Z,4
2023-02-03T13:16:59.671Z,4.17
2023-02-03T13:17:59.478Z,3.94
2023-02-03T13:18:59.471Z,4.17
2023-02-03T13:19:59.465Z,3.83
2023-02-03T13:20:59.539Z,4.28
2023-02-03T13:21:59.476Z,4.28
2023-02-03T13:22:59.460Z,4.17
2023-02-03T13:23:59.471Z,4.17
2023-02-03T13:24:59.493Z,4.22
2023-02-03T13:25:59.473Z,4.44
2023-02-03T13:26:59.489Z,4.56
2023-02-03T13:27:59.526Z,4.44
2023-02-03T13:28:59.475Z,4.28
2023-02-03T13:29:59.485Z,4.06